sensor_id;sensor_type;location;lat;lon;timestamp;P1;durP1;ratioP1;P2;durP2;ratioP2
22780;SDS011;11557;50.884;4.322;2022-12-07T00:01:41;21.30;;;17.48;;
22780;SDS011;11557;50.884;4.322;2022-12-07T00:04:10;23.27;;;18.42;;
22780;SDS011;11557;50.884;4.322;2022-12-07T00:06:40;26.33;;;18.73;;
22780;SDS011;11557;50.884;4.322;2022-12-07T00:09:09;21.83;;;16.80;;
22780;SDS011;11557;50.884;4.322;2022-12-07T00:11:37;25.80;;;18.20;;
22780;SDS011;11557;50.884;4.322;2022-12-07T00:14:04;24.08;;;17.70;;
22780;SDS011;11557;50.884;4.322;2022-12-07T00:16:33;28.23;;;18.60;;
22780;SDS011;11557;50.884;4.322;2022-12-07T00:18:59;26.35;;;18.35;;
22780;SDS011;11557;50.884;4.322;2022-12-07T00:21:26;25.58;;;18.40;;
22780;SDS011;11557;50.884;4.322;2022-12-07T00:23:53;25.20;;;17.88;;
22780;SDS011;11557;50.884;4.322;2022-12-07T00:26:21;23.35;;;18.95;;
22780;SDS011;11557;50.884;4.322;2022-12-07T00:28:59;27.02;;;17.92;;
22780;SDS011;11557;50.884;4.322;2022-12-07T00:31:27;25.02;;;18.30;;
22780;SDS011;11557;50.884;4.322;2022-12-07T00:33:54;25.77;;;18.55;;
22780;SDS011;11557;50.884;4.322;2022-12-07T00:36:22;22.98;;;18.42;;
22780;SDS011;11557;50.884;4.322;2022-12-07T00:38:49;25.92;;;17.88;;
22780;SDS011;11557;50.884;4.322;2022-12-07T00:41:16;24.70;;;18.02;;
22780;SDS011;11557;50.884;4.322;2022-12-07T00:43:44;25.98;;;17.77;;
22780;SDS011;11557;50.884;4.322;2022-12-07T00:46:10;26.40;;;18.73;;
22780;SDS011;11557;50.884;4.322;2022-12-07T00:48:37;21.75;;;17.35;;
22780;SDS011;11557;50.884;4.322;2022-12-07T00:51:03;20.75;;;17.00;;
22780;SDS011;11557;50.884;4.322;2022-12-07T00:53:29;24.65;;;18.25;;
22780;SDS011;11557;50.884;4.322;2022-12-07T00:55:58;23.95;;;18.45;;
22780;SDS011;11557;50.884;4.322;2022-12-07T00:58:33;29.65;;;18.65;;
22780;SDS011;11557;50.884;4.322;2022-12-07T01:01:02;24.50;;;18.63;;
22780;SDS011;11557;50.884;4.322;2022-12-07T01:03:29;25.58;;;17.92;;
22780;SDS011;11557;50.884;4.322;2022-12-07T01:05:55;27.85;;;18.60;;
22780;SDS011;11557;50.884;4.322;2022-12-07T01:08:23;23.33;;;18.65;;
22780;SDS011;11557;50.884;4.322;2022-12-07T01:10:57;25.02;;;18.23;;
22780;SDS011;11557;50.884;4.322;2022-12-07T01:13:31;27.23;;;18.92;;
22780;SDS011;11557;50.884;4.322;2022-12-07T01:15:58;26.23;;;18.45;;
22780;SDS011;11557;50.884;4.322;2022-12-07T01:18:26;24.20;;;19.02;;
22780;SDS011;11557;50.884;4.322;2022-12-07T01:20:59;24.08;;;18.45;;
22780;SDS011;11557;50.884;4.322;2022-12-07T01:23:33;24.70;;;17.42;;
22780;SDS011;11557;50.884;4.322;2022-12-07T01:26:02;24.85;;;18.02;;
22780;SDS011;11557;50.884;4.322;2022-12-07T01:28:30;23.52;;;18.92;;
22780;SDS011;11557;50.884;4.322;2022-12-07T01:31:10;25.42;;;18.35;;
22780;SDS011;11557;50.884;4.322;2022-12-07T01:33:39;24.45;;;18.02;;
22780;SDS011;11557;50.884;4.322;2022-12-07T01:36:19;24.67;;;17.88;;
22780;SDS011;11557;50.884;4.322;2022-12-07T01:38:56;21.88;;;16.42;;
22780;SDS011;11557;50.884;4.322;2022-12-07T01:41:25;27.55;;;17.75;;
22780;SDS011;11557;50.884;4.322;2022-12-07T01:46:35;26.42;;;17.52;;
22780;SDS011;11557;50.884;4.322;2022-12-07T01:49:01;26.30;;;17.77;;
22780;SDS011;11557;50.884;4.322;2022-12-07T01:51:30;23.38;;;18.13;;
22780;SDS011;11557;50.884;4.322;2022-12-07T01:53:56;21.25;;;17.38;;
22780;SDS011;11557;50.884;4.322;2022-12-07T01:56:24;27.55;;;18.27;;
22780;SDS011;11557;50.884;4.322;2022-12-07T01:58:52;27.90;;;19.80;;
22780;SDS011;11557;50.884;4.322;2022-12-07T02:01:19;26.90;;;18.63;;
22780;SDS011;11557;50.884;4.322;2022-12-07T02:03:44;23.90;;;19.45;;
22780;SDS011;11557;50.884;4.322;2022-12-07T02:06:12;24.75;;;20.02;;
22780;SDS011;11557;50.884;4.322;2022-12-07T02:08:41;24.52;;;19.02;;
22780;SDS011;11557;50.884;4.322;2022-12-07T02:11:08;24.58;;;19.27;;
22780;SDS011;11557;50.884;4.322;2022-12-07T02:13:35;29.25;;;18.45;;
22780;SDS011;11557;50.884;4.322;2022-12-07T02:18:49;21.80;;;17.77;;
22780;SDS011;11557;50.884;4.322;2022-12-07T02:21:38;20.15;;;17.52;;
22780;SDS011;11557;50.884;4.322;2022-12-07T02:27:07;26.60;;;18.10;;
22780;SDS011;11557;50.884;4.322;2022-12-07T02:37:25;23.98;;;18.02;;
22780;SDS011;11557;50.884;4.322;2022-12-07T02:42:53;26.50;;;19.40;;
22780;SDS011;11557;50.884;4.322;2022-12-07T02:45:33;23.42;;;17.48;;
22780;SDS011;11557;50.884;4.322;2022-12-07T02:48:01;23.23;;;17.00;;
22780;SDS011;11557;50.884;4.322;2022-12-07T02:50:28;25.25;;;17.67;;
22780;SDS011;11557;50.884;4.322;2022-12-07T02:52:54;24.85;;;18.40;;
22780;SDS011;11557;50.884;4.322;2022-12-07T02:55:21;31.58;;;18.17;;
22780;SDS011;11557;50.884;4.322;2022-12-07T03:01:10;28.58;;;17.92;;
22780;SDS011;11557;50.884;4.322;2022-12-07T03:04:02;25.98;;;18.38;;
22780;SDS011;11557;50.884;4.322;2022-12-07T03:06:42;26.33;;;17.58;;
22780;SDS011;11557;50.884;4.322;2022-12-07T03:09:36;27.70;;;18.65;;
22780;SDS011;11557;50.884;4.322;2022-12-07T03:12:09;22.30;;;16.98;;
22780;SDS011;11557;50.884;4.322;2022-12-07T03:14:42;21.42;;;17.75;;
22780;SDS011;11557;50.884;4.322;2022-12-07T03:17:18;23.73;;;16.88;;
22780;SDS011;11557;50.884;4.322;2022-12-07T03:22:16;24.60;;;16.92;;
22780;SDS011;11557;50.884;4.322;2022-12-07T03:29:45;20.08;;;16.73;;
22780;SDS011;11557;50.884;4.322;2022-12-07T03:35:44;25.13;;;17.67;;
22780;SDS011;11557;50.884;4.322;2022-12-07T03:38:10;27.85;;;16.98;;
22780;SDS011;11557;50.884;4.322;2022-12-07T03:40:54;23.42;;;16.77;;
22780;SDS011;11557;50.884;4.322;2022-12-07T03:43:46;21.90;;;16.83;;
22780;SDS011;11557;50.884;4.322;2022-12-07T03:49:25;21.17;;;15.57;;
22780;SDS011;11557;50.884;4.322;2022-12-07T03:51:57;19.48;;;15.38;;
22780;SDS011;11557;50.884;4.322;2022-12-07T03:57:04;23.20;;;16.00;;
22780;SDS011;11557;50.884;4.322;2022-12-07T03:59:32;20.75;;;15.57;;
22780;SDS011;11557;50.884;4.322;2022-12-07T04:02:02;21.02;;;15.57;;
22780;SDS011;11557;50.884;4.322;2022-12-07T04:04:30;19.20;;;15.65;;
22780;SDS011;11557;50.884;4.322;2022-12-07T04:06:55;23.17;;;15.05;;
22780;SDS011;11557;50.884;4.322;2022-12-07T04:09:21;19.63;;;15.13;;
22780;SDS011;11557;50.884;4.322;2022-12-07T04:11:47;20.88;;;14.82;;
22780;SDS011;11557;50.884;4.322;2022-12-07T04:14:12;17.70;;;14.55;;
22780;SDS011;11557;50.884;4.322;2022-12-07T04:16:48;22.27;;;14.30;;
22780;SDS011;11557;50.884;4.322;2022-12-07T04:19:16;17.83;;;13.18;;
22780;SDS011;11557;50.884;4.322;2022-12-07T04:21:43;18.33;;;13.77;;
22780;SDS011;11557;50.884;4.322;2022-12-07T04:24:09;20.20;;;14.73;;
22780;SDS011;11557;50.884;4.322;2022-12-07T04:26:36;19.83;;;13.82;;
22780;SDS011;11557;50.884;4.322;2022-12-07T04:29:02;20.75;;;14.20;;
22780;SDS011;11557;50.884;4.322;2022-12-07T04:31:27;20.38;;;14.38;;
22780;SDS011;11557;50.884;4.322;2022-12-07T04:33:53;19.23;;;13.18;;
22780;SDS011;11557;50.884;4.322;2022-12-07T04:36:19;18.90;;;13.65;;
22780;SDS011;11557;50.884;4.322;2022-12-07T04:38:45;22.55;;;14.60;;
22780;SDS011;11557;50.884;4.322;2022-12-07T04:41:11;22.85;;;14.85;;
22780;SDS011;11557;50.884;4.322;2022-12-07T04:43:37;23.02;;;14.65;;
22780;SDS011;11557;50.884;4.322;2022-12-07T04:46:03;22.05;;;15.80;;
22780;SDS011;11557;50.884;4.322;2022-12-07T04:48:28;20.52;;;14.90;;
22780;SDS011;11557;50.884;4.322;2022-12-07T04:50:55;24.95;;;15.77;;
22780;SDS011;11557;50.884;4.322;2022-12-07T04:53:20;20.77;;;16.40;;
22780;SDS011;11557;50.884;4.322;2022-12-07T04:55:46;22.67;;;16.58;;
22780;SDS011;11557;50.884;4.322;2022-12-07T04:58:13;22.67;;;14.43;;
22780;SDS011;11557;50.884;4.322;2022-12-07T05:00:39;22.10;;;13.63;;
22780;SDS011;11557;50.884;4.322;2022-12-07T05:03:05;15.40;;;12.93;;
22780;SDS011;11557;50.884;4.322;2022-12-07T05:05:30;19.38;;;12.77;;
22780;SDS011;11557;50.884;4.322;2022-12-07T05:07:56;19.75;;;14.52;;
22780;SDS011;11557;50.884;4.322;2022-12-07T05:10:22;21.30;;;13.23;;
22780;SDS011;11557;50.884;4.322;2022-12-07T05:12:47;18.75;;;14.55;;
22780;SDS011;11557;50.884;4.322;2022-12-07T05:15:13;18.73;;;13.65;;
22780;SDS011;11557;50.884;4.322;2022-12-07T05:17:40;18.63;;;13.80;;
22780;SDS011;11557;50.884;4.322;2022-12-07T05:20:06;20.67;;;13.93;;
22780;SDS011;11557;50.884;4.322;2022-12-07T05:22:33;25.30;;;14.13;;
22780;SDS011;11557;50.884;4.322;2022-12-07T05:24:59;24.25;;;14.95;;
22780;SDS011;11557;50.884;4.322;2022-12-07T05:27:24;21.10;;;14.70;;
22780;SDS011;11557;50.884;4.322;2022-12-07T05:29:50;22.08;;;14.85;;
22780;SDS011;11557;50.884;4.322;2022-12-07T05:32:16;22.13;;;13.82;;
22780;SDS011;11557;50.884;4.322;2022-12-07T05:34:42;21.10;;;14.95;;
22780;SDS011;11557;50.884;4.322;2022-12-07T05:37:08;28.75;;;18.90;;
22780;SDS011;11557;50.884;4.322;2022-12-07T05:39:34;17.83;;;14.35;;
22780;SDS011;11557;50.884;4.322;2022-12-07T05:41:59;27.00;;;15.52;;
22780;SDS011;11557;50.884;4.322;2022-12-07T05:44:41;23.35;;;14.02;;
22780;SDS011;11557;50.884;4.322;2022-12-07T05:47:08;18.77;;;13.65;;
22780;SDS011;11557;50.884;4.322;2022-12-07T05:49:34;20.30;;;13.90;;
22780;SDS011;11557;50.884;4.322;2022-12-07T05:52:00;28.42;;;14.38;;
22780;SDS011;11557;50.884;4.322;2022-12-07T05:54:26;22.67;;;14.07;;
22780;SDS011;11557;50.884;4.322;2022-12-07T05:56:51;19.65;;;14.55;;
22780;SDS011;11557;50.884;4.322;2022-12-07T05:59:17;19.15;;;14.07;;
22780;SDS011;11557;50.884;4.322;2022-12-07T06:01:59;23.42;;;14.65;;
22780;SDS011;11557;50.884;4.322;2022-12-07T06:04:28;18.45;;;14.15;;
22780;SDS011;11557;50.884;4.322;2022-12-07T06:06:56;24.63;;;15.13;;
22780;SDS011;11557;50.884;4.322;2022-12-07T06:09:22;24.02;;;14.07;;
22780;SDS011;11557;50.884;4.322;2022-12-07T06:11:49;21.65;;;14.23;;
22780;SDS011;11557;50.884;4.322;2022-12-07T06:14:34;19.83;;;13.65;;
22780;SDS011;11557;50.884;4.322;2022-12-07T06:17:00;18.70;;;14.35;;
22780;SDS011;11557;50.884;4.322;2022-12-07T06:19:25;21.98;;;14.57;;
22780;SDS011;11557;50.884;4.322;2022-12-07T06:21:51;22.52;;;14.00;;
22780;SDS011;11557;50.884;4.322;2022-12-07T06:24:17;18.92;;;13.85;;
22780;SDS011;11557;50.884;4.322;2022-12-07T06:26:43;26.40;;;14.93;;
22780;SDS011;11557;50.884;4.322;2022-12-07T06:29:09;20.13;;;14.50;;
22780;SDS011;11557;50.884;4.322;2022-12-07T06:31:36;24.42;;;13.88;;
22780;SDS011;11557;50.884;4.322;2022-12-07T06:34:02;20.38;;;13.88;;
22780;SDS011;11557;50.884;4.322;2022-12-07T06:36:30;18.23;;;13.75;;
22780;SDS011;11557;50.884;4.322;2022-12-07T06:38:56;19.65;;;14.63;;
22780;SDS011;11557;50.884;4.322;2022-12-07T06:41:22;19.55;;;14.25;;
22780;SDS011;11557;50.884;4.322;2022-12-07T06:43:48;23.52;;;14.30;;
22780;SDS011;11557;50.884;4.322;2022-12-07T06:46:15;23.10;;;14.93;;
22780;SDS011;11557;50.884;4.322;2022-12-07T06:48:41;19.33;;;13.65;;
22780;SDS011;11557;50.884;4.322;2022-12-07T06:51:08;21.45;;;14.55;;
22780;SDS011;11557;50.884;4.322;2022-12-07T06:53:34;20.90;;;14.25;;
22780;SDS011;11557;50.884;4.322;2022-12-07T06:56:01;23.85;;;14.50;;
22780;SDS011;11557;50.884;4.322;2022-12-07T06:58:26;19.42;;;13.45;;
22780;SDS011;11557;50.884;4.322;2022-12-07T07:00:52;19.13;;;13.18;;
22780;SDS011;11557;50.884;4.322;2022-12-07T07:03:18;20.13;;;14.55;;
22780;SDS011;11557;50.884;4.322;2022-12-07T07:05:44;17.15;;;13.68;;
22780;SDS011;11557;50.884;4.322;2022-12-07T07:08:10;19.13;;;13.05;;
22780;SDS011;11557;50.884;4.322;2022-12-07T07:10:37;22.73;;;14.18;;
22780;SDS011;11557;50.884;4.322;2022-12-07T07:13:02;20.52;;;14.43;;
22780;SDS011;11557;50.884;4.322;2022-12-07T07:15:30;20.83;;;13.82;;
22780;SDS011;11557;50.884;4.322;2022-12-07T07:17:55;20.17;;;13.55;;
22780;SDS011;11557;50.884;4.322;2022-12-07T07:20:21;22.08;;;13.55;;
22780;SDS011;11557;50.884;4.322;2022-12-07T07:22:47;24.38;;;15.52;;
22780;SDS011;11557;50.884;4.322;2022-12-07T07:25:13;20.42;;;15.55;;
22780;SDS011;11557;50.884;4.322;2022-12-07T07:27:40;21.98;;;15.23;;
22780;SDS011;11557;50.884;4.322;2022-12-07T07:30:05;19.17;;;15.10;;
22780;SDS011;11557;50.884;4.322;2022-12-07T07:32:32;18.83;;;14.32;;
22780;SDS011;11557;50.884;4.322;2022-12-07T07:34:57;19.33;;;13.20;;
22780;SDS011;11557;50.884;4.322;2022-12-07T07:37:23;21.17;;;14.05;;
22780;SDS011;11557;50.884;4.322;2022-12-07T07:39:49;20.63;;;13.13;;
22780;SDS011;11557;50.884;4.322;2022-12-07T07:42:14;21.17;;;13.75;;
22780;SDS011;11557;50.884;4.322;2022-12-07T07:44:40;21.60;;;13.70;;
22780;SDS011;11557;50.884;4.322;2022-12-07T07:47:06;18.98;;;12.85;;
22780;SDS011;11557;50.884;4.322;2022-12-07T07:49:31;20.73;;;13.20;;
22780;SDS011;11557;50.884;4.322;2022-12-07T07:51:57;25.17;;;13.27;;
22780;SDS011;11557;50.884;4.322;2022-12-07T07:54:23;17.02;;;13.45;;
22780;SDS011;11557;50.884;4.322;2022-12-07T07:56:48;25.73;;;13.80;;
22780;SDS011;11557;50.884;4.322;2022-12-07T07:59:15;22.60;;;14.85;;
22780;SDS011;11557;50.884;4.322;2022-12-07T08:01:41;24.70;;;15.07;;
22780;SDS011;11557;50.884;4.322;2022-12-07T08:04:07;27.25;;;15.60;;
22780;SDS011;11557;50.884;4.322;2022-12-07T08:06:32;21.98;;;15.57;;
22780;SDS011;11557;50.884;4.322;2022-12-07T08:08:58;25.17;;;15.02;;
22780;SDS011;11557;50.884;4.322;2022-12-07T08:11:24;23.55;;;16.00;;
22780;SDS011;11557;50.884;4.322;2022-12-07T08:13:49;22.45;;;15.45;;
22780;SDS011;11557;50.884;4.322;2022-12-07T08:16:15;24.63;;;15.95;;
22780;SDS011;11557;50.884;4.322;2022-12-07T08:18:41;27.13;;;16.33;;
22780;SDS011;11557;50.884;4.322;2022-12-07T08:21:09;18.50;;;15.55;;
22780;SDS011;11557;50.884;4.322;2022-12-07T08:23:38;24.02;;;16.92;;
22780;SDS011;11557;50.884;4.322;2022-12-07T08:26:05;29.20;;;18.38;;
22780;SDS011;11557;50.884;4.322;2022-12-07T08:28:32;28.50;;;17.27;;
22780;SDS011;11557;50.884;4.322;2022-12-07T08:31:01;23.08;;;16.08;;
22780;SDS011;11557;50.884;4.322;2022-12-07T08:33:28;22.17;;;16.00;;
22780;SDS011;11557;50.884;4.322;2022-12-07T08:35:54;25.17;;;17.35;;
22780;SDS011;11557;50.884;4.322;2022-12-07T08:38:20;23.15;;;14.82;;
22780;SDS011;11557;50.884;4.322;2022-12-07T08:40:53;23.67;;;15.27;;
22780;SDS011;11557;50.884;4.322;2022-12-07T08:43:20;23.73;;;13.90;;
22780;SDS011;11557;50.884;4.322;2022-12-07T08:45:47;19.55;;;14.45;;
22780;SDS011;11557;50.884;4.322;2022-12-07T08:48:18;20.27;;;14.52;;
22780;SDS011;11557;50.884;4.322;2022-12-07T08:50:47;20.98;;;13.85;;
22780;SDS011;11557;50.884;4.322;2022-12-07T08:53:13;21.08;;;14.73;;
22780;SDS011;11557;50.884;4.322;2022-12-07T08:55:38;23.00;;;13.80;;
22780;SDS011;11557;50.884;4.322;2022-12-07T08:58:04;21.77;;;13.52;;
22780;SDS011;11557;50.884;4.322;2022-12-07T09:00:30;18.92;;;13.88;;
22780;SDS011;11557;50.884;4.322;2022-12-07T09:02:55;26.98;;;13.00;;
22780;SDS011;11557;50.884;4.322;2022-12-07T09:05:21;16.08;;;12.07;;
22780;SDS011;11557;50.884;4.322;2022-12-07T09:07:51;19.70;;;12.35;;
22780;SDS011;11557;50.884;4.322;2022-12-07T09:10:20;23.60;;;12.73;;
22780;SDS011;11557;50.884;4.322;2022-12-07T09:12:46;17.17;;;11.43;;
22780;SDS011;11557;50.884;4.322;2022-12-07T09:15:11;17.80;;;11.52;;
22780;SDS011;11557;50.884;4.322;2022-12-07T09:17:37;20.38;;;11.23;;
22780;SDS011;11557;50.884;4.322;2022-12-07T09:20:03;17.10;;;11.32;;
22780;SDS011;11557;50.884;4.322;2022-12-07T09:22:31;17.95;;;11.30;;
22780;SDS011;11557;50.884;4.322;2022-12-07T09:24:57;24.52;;;11.25;;
22780;SDS011;11557;50.884;4.322;2022-12-07T09:27:23;17.25;;;11.40;;
22780;SDS011;11557;50.884;4.322;2022-12-07T09:29:49;23.27;;;11.02;;
22780;SDS011;11557;50.884;4.322;2022-12-07T09:32:15;18.83;;;10.15;;
22780;SDS011;11557;50.884;4.322;2022-12-07T09:34:40;18.70;;;11.57;;
22780;SDS011;11557;50.884;4.322;2022-12-07T09:37:06;16.35;;;9.70;;
22780;SDS011;11557;50.884;4.322;2022-12-07T09:39:32;14.90;;;10.65;;
22780;SDS011;11557;50.884;4.322;2022-12-07T09:41:58;14.68;;;10.60;;
22780;SDS011;11557;50.884;4.322;2022-12-07T09:44:27;18.48;;;11.93;;
22780;SDS011;11557;50.884;4.322;2022-12-07T09:46:53;17.55;;;10.73;;
22780;SDS011;11557;50.884;4.322;2022-12-07T09:49:22;20.70;;;10.73;;
22780;SDS011;11557;50.884;4.322;2022-12-07T09:54:52;15.05;;;10.43;;
22780;SDS011;11557;50.884;4.322;2022-12-07T09:57:19;17.13;;;9.68;;
22780;SDS011;11557;50.884;4.322;2022-12-07T09:59:56;14.13;;;9.52;;
22780;SDS011;11557;50.884;4.322;2022-12-07T10:05:00;18.50;;;9.27;;
22780;SDS011;11557;50.884;4.322;2022-12-07T10:07:26;22.35;;;9.73;;
22780;SDS011;11557;50.884;4.322;2022-12-07T10:09:51;14.52;;;9.10;;
22780;SDS011;11557;50.884;4.322;2022-12-07T10:12:17;16.15;;;9.45;;
22780;SDS011;11557;50.884;4.322;2022-12-07T10:14:53;13.23;;;8.82;;
22780;SDS011;11557;50.884;4.322;2022-12-07T10:20:16;11.45;;;8.30;;
22780;SDS011;11557;50.884;4.322;2022-12-07T10:25:28;13.93;;;9.48;;
22780;SDS011;11557;50.884;4.322;2022-12-07T10:28:01;15.15;;;9.77;;
22780;SDS011;11557;50.884;4.322;2022-12-07T10:30:46;17.15;;;9.25;;
22780;SDS011;11557;50.884;4.322;2022-12-07T10:33:28;15.35;;;8.85;;
22780;SDS011;11557;50.884;4.322;2022-12-07T10:36:15;14.07;;;7.55;;
22780;SDS011;11557;50.884;4.322;2022-12-07T10:38:53;12.50;;;7.90;;
22780;SDS011;11557;50.884;4.322;2022-12-07T10:41:24;13.73;;;8.07;;
22780;SDS011;11557;50.884;4.322;2022-12-07T10:43:52;18.77;;;7.95;;
22780;SDS011;11557;50.884;4.322;2022-12-07T10:49:29;16.80;;;7.70;;
22780;SDS011;11557;50.884;4.322;2022-12-07T11:00:18;12.82;;;7.97;;
22780;SDS011;11557;50.884;4.322;2022-12-07T11:05:17;16.88;;;8.07;;
22780;SDS011;11557;50.884;4.322;2022-12-07T11:07:56;12.73;;;7.85;;
22780;SDS011;11557;50.884;4.322;2022-12-07T11:18:27;14.27;;;7.10;;
22780;SDS011;11557;50.884;4.322;2022-12-07T11:36:40;13.73;;;8.32;;
22780;SDS011;11557;50.884;4.322;2022-12-07T11:41:47;14.75;;;7.53;;
22780;SDS011;11557;50.884;4.322;2022-12-07T11:44:24;14.85;;;8.02;;
22780;SDS011;11557;50.884;4.322;2022-12-07T11:49:40;13.02;;;7.60;;
22780;SDS011;11557;50.884;4.322;2022-12-07T11:52:17;16.27;;;6.57;;
22780;SDS011;11557;50.884;4.322;2022-12-07T11:54:49;11.52;;;6.10;;
22780;SDS011;11557;50.884;4.322;2022-12-07T11:57:19;12.77;;;5.22;;
22780;SDS011;11557;50.884;4.322;2022-12-07T11:59:52;14.32;;;5.35;;
22780;SDS011;11557;50.884;4.322;2022-12-07T12:02:26;13.57;;;4.32;;
22780;SDS011;11557;50.884;4.322;2022-12-07T12:05:18;10.05;;;3.80;;
22780;SDS011;11557;50.884;4.322;2022-12-07T12:07:51;7.78;;;3.72;;
22780;SDS011;11557;50.884;4.322;2022-12-07T12:10:29;9.45;;;3.17;;
22780;SDS011;11557;50.884;4.322;2022-12-07T12:22:15;7.15;;;3.50;;
22780;SDS011;11557;50.884;4.322;2022-12-07T12:24:43;8.73;;;2.38;;
22780;SDS011;11557;50.884;4.322;2022-12-07T12:33:01;10.55;;;3.53;;
22780;SDS011;11557;50.884;4.322;2022-12-07T12:35:48;7.50;;;2.55;;
22780;SDS011;11557;50.884;4.322;2022-12-07T12:51:56;8.05;;;2.60;;
22780;SDS011;11557;50.884;4.322;2022-12-07T12:54:24;9.30;;;2.97;;
22780;SDS011;11557;50.884;4.322;2022-12-07T12:59:27;10.38;;;2.72;;
22780;SDS011;11557;50.884;4.322;2022-12-07T13:05:14;5.65;;;2.50;;
22780;SDS011;11557;50.884;4.322;2022-12-07T13:18:39;5.35;;;1.92;;
22780;SDS011;11557;50.884;4.322;2022-12-07T13:29:14;7.78;;;2.58;;
22780;SDS011;11557;50.884;4.322;2022-12-07T13:31:42;8.43;;;3.28;;
22780;SDS011;11557;50.884;4.322;2022-12-07T13:34:30;8.57;;;3.22;;
22780;SDS011;11557;50.884;4.322;2022-12-07T13:37:01;7.28;;;2.97;;
22780;SDS011;11557;50.884;4.322;2022-12-07T13:39:35;8.23;;;3.33;;
22780;SDS011;11557;50.884;4.322;2022-12-07T13:42:27;10.43;;;3.08;;
22780;SDS011;11557;50.884;4.322;2022-12-07T13:44:59;8.60;;;2.92;;
22780;SDS011;11557;50.884;4.322;2022-12-07T13:50:00;8.13;;;3.13;;
22780;SDS011;11557;50.884;4.322;2022-12-07T13:52:27;10.48;;;3.42;;
22780;SDS011;11557;50.884;4.322;2022-12-07T13:55:05;6.78;;;3.13;;
22780;SDS011;11557;50.884;4.322;2022-12-07T13:57:39;12.02;;;3.38;;
22780;SDS011;11557;50.884;4.322;2022-12-07T14:00:13;8.45;;;2.55;;
22780;SDS011;11557;50.884;4.322;2022-12-07T14:05:27;6.63;;;2.10;;
22780;SDS011;11557;50.884;4.322;2022-12-07T14:07:57;7.93;;;2.33;;
22780;SDS011;11557;50.884;4.322;2022-12-07T14:10:25;6.90;;;2.55;;
22780;SDS011;11557;50.884;4.322;2022-12-07T14:12:59;13.27;;;3.65;;
22780;SDS011;11557;50.884;4.322;2022-12-07T14:15:29;8.55;;;3.72;;
22780;SDS011;11557;50.884;4.322;2022-12-07T14:17:57;6.00;;;2.78;;
22780;SDS011;11557;50.884;4.322;2022-12-07T14:20:32;10.43;;;2.97;;
22780;SDS011;11557;50.884;4.322;2022-12-07T14:23:01;9.85;;;3.35;;
22780;SDS011;11557;50.884;4.322;2022-12-07T14:25:44;8.27;;;3.85;;
22780;SDS011;11557;50.884;4.322;2022-12-07T14:28:28;8.70;;;5.25;;
22780;SDS011;11557;50.884;4.322;2022-12-07T14:30:58;6.13;;;3.15;;
22780;SDS011;11557;50.884;4.322;2022-12-07T14:33:25;8.50;;;3.38;;
22780;SDS011;11557;50.884;4.322;2022-12-07T14:35:51;5.60;;;2.10;;
22780;SDS011;11557;50.884;4.322;2022-12-07T14:38:24;6.65;;;2.28;;
22780;SDS011;11557;50.884;4.322;2022-12-07T14:40:51;7.25;;;2.50;;
22780;SDS011;11557;50.884;4.322;2022-12-07T14:43:18;5.57;;;2.65;;
22780;SDS011;11557;50.884;4.322;2022-12-07T14:45:44;9.68;;;3.00;;
22780;SDS011;11557;50.884;4.322;2022-12-07T14:48:11;6.85;;;2.85;;
22780;SDS011;11557;50.884;4.322;2022-12-07T14:50:42;5.38;;;2.47;;
22780;SDS011;11557;50.884;4.322;2022-12-07T14:53:14;4.45;;;2.13;;
22780;SDS011;11557;50.884;4.322;2022-12-07T14:55:42;7.60;;;2.15;;
22780;SDS011;11557;50.884;4.322;2022-12-07T14:58:14;9.45;;;2.20;;
22780;SDS011;11557;50.884;4.322;2022-12-07T15:00:41;6.50;;;2.00;;
22780;SDS011;11557;50.884;4.322;2022-12-07T15:03:06;10.18;;;2.35;;
22780;SDS011;11557;50.884;4.322;2022-12-07T15:05:32;4.93;;;1.60;;
22780;SDS011;11557;50.884;4.322;2022-12-07T15:07:58;4.88;;;1.92;;
22780;SDS011;11557;50.884;4.322;2022-12-07T15:10:25;5.80;;;1.90;;
22780;SDS011;11557;50.884;4.322;2022-12-07T15:12:55;6.88;;;2.03;;
22780;SDS011;11557;50.884;4.322;2022-12-07T15:15:45;6.40;;;3.60;;
22780;SDS011;11557;50.884;4.322;2022-12-07T15:18:11;10.27;;;3.88;;
22780;SDS011;11557;50.884;4.322;2022-12-07T15:20:37;7.97;;;3.33;;
22780;SDS011;11557;50.884;4.322;2022-12-07T15:23:02;5.47;;;2.72;;
22780;SDS011;11557;50.884;4.322;2022-12-07T15:25:29;4.65;;;2.60;;
22780;SDS011;11557;50.884;4.322;2022-12-07T15:27:55;10.98;;;4.50;;
22780;SDS011;11557;50.884;4.322;2022-12-07T15:30:20;6.97;;;3.95;;
22780;SDS011;11557;50.884;4.322;2022-12-07T15:32:52;8.45;;;3.72;;
22780;SDS011;11557;50.884;4.322;2022-12-07T15:35:19;5.45;;;3.15;;
22780;SDS011;11557;50.884;4.322;2022-12-07T15:37:45;7.90;;;3.30;;
22780;SDS011;11557;50.884;4.322;2022-12-07T15:40:11;4.68;;;2.97;;
22780;SDS011;11557;50.884;4.322;2022-12-07T15:42:38;6.95;;;3.60;;
22780;SDS011;11557;50.884;4.322;2022-12-07T15:45:04;9.77;;;6.28;;
22780;SDS011;11557;50.884;4.322;2022-12-07T15:47:36;9.77;;;6.45;;
22780;SDS011;11557;50.884;4.322;2022-12-07T15:50:04;6.93;;;4.10;;
22780;SDS011;11557;50.884;4.322;2022-12-07T15:52:32;7.60;;;4.43;;
22780;SDS011;11557;50.884;4.322;2022-12-07T15:54:58;11.45;;;4.85;;
22780;SDS011;11557;50.884;4.322;2022-12-07T15:57:25;8.52;;;4.97;;
22780;SDS011;11557;50.884;4.322;2022-12-07T15:59:51;8.43;;;4.68;;
22780;SDS011;11557;50.884;4.322;2022-12-07T16:02:17;8.48;;;4.68;;
22780;SDS011;11557;50.884;4.322;2022-12-07T16:04:42;10.65;;;5.00;;
22780;SDS011;11557;50.884;4.322;2022-12-07T16:07:08;7.70;;;4.85;;
22780;SDS011;11557;50.884;4.322;2022-12-07T16:09:36;8.95;;;5.20;;
22780;SDS011;11557;50.884;4.322;2022-12-07T16:12:02;9.82;;;5.35;;
22780;SDS011;11557;50.884;4.322;2022-12-07T16:14:28;10.55;;;5.43;;
22780;SDS011;11557;50.884;4.322;2022-12-07T16:16:54;11.40;;;5.82;;
22780;SDS011;11557;50.884;4.322;2022-12-07T16:19:20;14.00;;;6.30;;
22780;SDS011;11557;50.884;4.322;2022-12-07T16:21:46;10.98;;;6.20;;
22780;SDS011;11557;50.884;4.322;2022-12-07T16:24:11;8.77;;;6.13;;
22780;SDS011;11557;50.884;4.322;2022-12-07T16:26:40;11.27;;;5.88;;
22780;SDS011;11557;50.884;4.322;2022-12-07T16:29:05;14.77;;;5.78;;
22780;SDS011;11557;50.884;4.322;2022-12-07T16:31:31;12.20;;;6.30;;
22780;SDS011;11557;50.884;4.322;2022-12-07T16:33:57;10.65;;;6.00;;
22780;SDS011;11557;50.884;4.322;2022-12-07T16:36:23;10.18;;;6.72;;
22780;SDS011;11557;50.884;4.322;2022-12-07T16:38:51;13.43;;;7.05;;
22780;SDS011;11557;50.884;4.322;2022-12-07T16:41:18;14.10;;;6.90;;
22780;SDS011;11557;50.884;4.322;2022-12-07T16:43:44;11.90;;;6.45;;
22780;SDS011;11557;50.884;4.322;2022-12-07T16:46:09;10.77;;;6.70;;
22780;SDS011;11557;50.884;4.322;2022-12-07T16:48:39;13.57;;;6.65;;
22780;SDS011;11557;50.884;4.322;2022-12-07T16:51:05;16.90;;;7.88;;
22780;SDS011;11557;50.884;4.322;2022-12-07T16:53:33;12.45;;;7.65;;
22780;SDS011;11557;50.884;4.322;2022-12-07T16:56:00;14.68;;;8.52;;
22780;SDS011;11557;50.884;4.322;2022-12-07T16:58:25;16.65;;;8.45;;
22780;SDS011;11557;50.884;4.322;2022-12-07T17:00:51;14.65;;;7.82;;
22780;SDS011;11557;50.884;4.322;2022-12-07T17:03:17;16.88;;;7.82;;
22780;SDS011;11557;50.884;4.322;2022-12-07T17:05:43;13.98;;;7.63;;
22780;SDS011;11557;50.884;4.322;2022-12-07T17:08:10;16.90;;;8.45;;
22780;SDS011;11557;50.884;4.322;2022-12-07T17:10:38;16.67;;;10.65;;